This is the latest recevied weather packets stored in our database for station/object SQ3MKP-13. If no packets are shown the sender has not sent any weather packets the latest 10 day(s).
| Time | Temp. | Humidity | Pressure | Rain* | Wind** | Luminosity | Snow |
|---|---|---|---|---|---|---|---|
| 1777267179 | 5° C | 61% | 1014.4 hPa | - | - | 102 W/m² | - |
| 1777266878 | 4.44° C | 62% | 1014.4 hPa | - | - | 94 W/m² | - |
| 1777266577 | 4.44° C | 63% | 1014.4 hPa | - | - | 86 W/m² | - |
| 1777266276 | 3.89° C | 64% | 1014.3 hPa | - | - | 64 W/m² | - |
| 1777265975 | 3.89° C | 64% | 1014.3 hPa | - | - | 64 W/m² | - |
| 1777265673 | 3.33° C | 66% | 1014.3 hPa | - | - | 51 W/m² | - |
| 1777265373 | 3.33° C | 66% | 1014.3 hPa | - | - | 51 W/m² | - |
| 1777265072 | 3.33° C | 69% | 1014.3 hPa | - | - | 46 W/m² | - |
| 1777264771 | 2.78° C | 69% | 1014.3 hPa | - | - | 43 W/m² | - |
| 1777264469 | 2.78° C | 70% | 1014.2 hPa | - | - | 40 W/m² | - |
| 1777264169 | 2.78° C | 71% | 1014.2 hPa | - | - | 37 W/m² | - |
| 1777263868 | 2.22° C | 73% | 1014.3 hPa | - | - | 29 W/m² | - |
| 1777263567 | 2.22° C | 73% | 1014.2 hPa | - | - | 29 W/m² | - |
| 1777263266 | 1.67° C | 73% | 1014.2 hPa | - | - | 26 W/m² | - |
| 1777262965 | 1.67° C | 73% | 1014.1 hPa | - | - | 22 W/m² | - |
| 1777262665 | 1.67° C | 74% | 1014 hPa | - | - | 18 W/m² | - |
| 1777262362 | 1.67° C | 75% | 1014 hPa | - | - | 16 W/m² | - |
| 1777262062 | 1.11° C | 74% | 1014.1 hPa | - | - | 11 W/m² | - |
| 1777261760 | 1.11° C | 74% | 1014 hPa | - | - | 10 W/m² | - |
| 1777261459 | 1.11° C | 75% | 1014.1 hPa | - | - | 7 W/m² | - |
| 1777261158 | 1.11° C | 76% | 1014.1 hPa | - | - | 5 W/m² | - |
| 1777260857 | 1.11° C | 74% | 1014.1 hPa | - | - | 4 W/m² | - |
| 1777260556 | 1.67° C | 75% | 1014.1 hPa | - | - | 2 W/m² | - |
| 1777260255 | 1.67° C | 74% | 1014.1 hPa | - | - | 1 W/m² | - |
| 1777259954 | 1.67° C | 74% | 1014 hPa | - | - | 1 W/m² | - |
* Rain since midnight (hover to see other rain measurements)
** Current wind speed in m/s (hover to see current wind gust speed)